Dan Fighter — OVUE2 — position and weather

sailwx.info

Track history (hours):
 
Tides and Currents Weather Stations Pressure Air Temp Water Temp Dewpoint Dewpoint Depression Visibility Wind Speed Wind Dir Waves Ship Positions

Dan Fighter

Last reported at 2017-Aug-22 10:32 UTC. Time now 2017-Aug-22 12:44 UTC.
Position N 53°32' E 008°09'.

Length 64 m; draft 3.1 m.

Type: Cargo ship. MMSI: 220386978.

Date/timePositionNaut miles runAvg speedWind from/ knotsBaromVisibWave heightAir tempDewpointWater temp
2017-Aug-22 10:32N 53°32' E 008°09'0 0.3
2017-Aug-22 10:30N 53°32' E 008°09'0 0.6
2017-Aug-22 10:00N 53°32' E 008°10'2 4.1
2017-Aug-22 09:30N 53°34' E 008°10'4 7.6
2017-Aug-22 08:59N 53°37' E 008°09'11 7.6
2017-Aug-22 07:35N 53°47' E 008°02'1 8.9
2017-Aug-22 07:30N 53°48' E 008°01'4 9.1
2017-Aug-22 07:00N 53°50' E 007°54'  
2017-Aug-19 01:59N 54°11' E 007°54'3 6.0
2017-Aug-19 01:28N 54°08' E 007°53'4 8.4
2017-Aug-19 00:59N 54°04' E 007°51'4 8.5
2017-Aug-19 00:30N 53°60' E 007°49'4 8.5
2017-Aug-19 00:00N 53°56' E 007°47'4 8.0
2017-Aug-18 23:31N 53°52' E 007°47'5 9.7
2017-Aug-18 23:00N 53°50' E 007°54'510.0
2017-Aug-18 22:30N 53°48' E 008°02'510.8
2017-Aug-18 22:00N 53°42' E 008°05'5 9.9
2017-Aug-18 21:30N 53°38' E 008°09'5 9.3
2017-Aug-18 21:00N 53°34' E 008°11'2 4.1
2017-Aug-18 20:31N 53°32' E 008°10'0 0.6
2017-Aug-18 20:00N 53°32' E 008°09'0 0.0
2017-Aug-18 19:30N 53°32' E 008°09'0 0.0
2017-Aug-18 19:00N 53°32' E 008°09'0 0.0
2017-Aug-18 18:30N 53°32' E 008°09'0 0.0
2017-Aug-18 17:57N 53°32' E 008°09'0 0.0
2017-Aug-18 17:27N 53°32' E 008°09'0 0.0
2017-Aug-18 16:57N 53°32' E 008°09'0 0.0
2017-Aug-18 16:31N 53°32' E 008°09'0 0.0
2017-Aug-18 16:00N 53°32' E 008°09'0 0.0
2017-Aug-18 15:30N 53°32' E 008°09'0 0.0
2017-Aug-18 14:36N 53°32' E 008°09'0 0.0
2017-Aug-18 14:00N 53°32' E 008°09'0 0.0
2017-Aug-18 13:27N 53°32' E 008°09'0 0.0
2017-Aug-18 13:00N 53°32' E 008°09'0 0.0
2017-Aug-18 12:30N 53°32' E 008°09'0 0.0
2017-Aug-18 11:57N 53°32' E 008°09'0 0.0
2017-Aug-18 11:30N 53°32' E 008°09'0 0.0
2017-Aug-18 11:00N 53°32' E 008°09'0 0.6
2017-Aug-18 10:30N 53°32' E 008°10'0 0.0
2017-Aug-18 10:00N 53°32' E 008°10'2 4.0
2017-Aug-18 09:30N 53°34' E 008°10'4 8.2
2017-Aug-18 08:59N 53°38' E 008°09'4 8.9
2017-Aug-18 08:30N 53°41' E 008°05'6 9.3
2017-Aug-18 07:50N 53°47' E 008°02'3 9.6
2017-Aug-18 07:30N 53°49' E 007°57'22 0.8
2017-Aug-17 05:07N 54°11' E 007°54'0 0.0
2017-Aug-17 04:58N 54°11' E 007°54'0 0.1
2017-Aug-17 03:58N 54°11' E 007°54'0 0.0
2017-Aug-16 23:35N 54°10' E 007°54'1 5.8
2017-Aug-16 23:28N 54°10' E 007°54'4 8.9
2017-Aug-16 23:00N 54°06' E 007°52'5 9.0
2017-Aug-16 22:30N 54°02' E 007°49'5 9.1
2017-Aug-16 22:01N 53°57' E 007°47'4 8.6
2017-Aug-16 21:30N 53°53' E 007°44'5 9.7
2017-Aug-16 21:00N 53°51' E 007°51'611.4
2017-Aug-16 20:30N 53°48' E 008°00'611.6
2017-Aug-16 20:00N 53°43' E 008°04'611.3
2017-Aug-16 19:30N 53°38' E 008°09'510.3
2017-Aug-16 19:00N 53°33' E 008°10'1 2.8
2017-Aug-16 18:31N 53°32' E 008°10'0 0.5
2017-Aug-16 18:00N 53°32' E 008°09'0 0.1
2017-Aug-16 17:30N 53°32' E 008°09'0 0.0
2017-Aug-16 17:00N 53°32' E 008°09'0 0.0
2017-Aug-16 16:30N 53°32' E 008°09'0 0.0
2017-Aug-16 16:00N 53°32' E 008°09'0 0.0
2017-Aug-16 15:30N 53°32' E 008°09'0 0.0
2017-Aug-16 15:00N 53°32' E 008°09'0 0.0
2017-Aug-16 14:30N 53°32' E 008°09'0 0.0
2017-Aug-16 14:00N 53°32' E 008°09'0 0.0
2017-Aug-16 13:30N 53°32' E 008°09'0 0.0
2017-Aug-16 13:00N 53°32' E 008°09'0 0.0
2017-Aug-16 12:30N 53°32' E 008°09'0 0.0
2017-Aug-16 12:00N 53°32' E 008°09'0 0.0
2017-Aug-16 11:30N 53°32' E 008°09'0 0.0
2017-Aug-16 11:00N 53°32' E 008°09'0 0.0
2017-Aug-16 10:30N 53°32' E 008°09'0 0.0
2017-Aug-16 10:00N 53°32' E 008°09'0 0.0
2017-Aug-16 09:30N 53°32' E 008°09'0 0.0
2017-Aug-16 09:00N 53°32' E 008°09'0 0.0
2017-Aug-16 08:30N 53°32' E 008°09'0 0.0
2017-Aug-16 07:57N 53°32' E 008°09'0 0.0
2017-Aug-16 07:30N 53°32' E 008°09'0 0.0
2017-Aug-16 07:00N 53°32' E 008°09'0 0.0
2017-Aug-16 06:30N 53°32' E 008°09'0 0.0
2017-Aug-16 06:00N 53°32' E 008°09'0 0.1
2017-Aug-16 05:30N 53°32' E 008°09'0 0.0
2017-Aug-16 05:00N 53°32' E 008°09'0 0.6
2017-Aug-16 04:30N 53°32' E 008°10'0 0.5
2017-Aug-16 04:00N 53°32' E 008°10'2 4.4
2017-Aug-16 03:30N 53°34' E 008°10'3 5.9
2017-Aug-16 03:00N 53°37' E 008°09'3 5.6
2017-Aug-16 02:30N 53°39' E 008°07'3 5.4
2017-Aug-16 02:00N 53°42' E 008°05'3 5.5
2017-Aug-16 01:30N 53°44' E 008°03'3 5.9
2017-Aug-16 01:00N 53°47' E 008°02'4 7.0
2017-Aug-16 00:30N 53°49' E 007°56'3 6.3
2017-Aug-16 00:00N 53°50' E 007°52'3 5.7
2017-Aug-15 23:30N 53°52' E 007°47'10 5.7
2017-Aug-15 21:50N 54°01' E 007°48'10 8.1
2017-Aug-15 20:37N 54°10' E 007°54'0 3.5
2017-Aug-15 20:30N 54°11' E 007°54'0 0.1
2017-Aug-15 19:58N 54°11' E 007°54'0 0.0
2017-Aug-15 19:28N 54°11' E 007°54'0 0.0
2017-Aug-15 18:58N 54°11' E 007°54'0 0.0
2017-Aug-15 18:28N 54°11' E 007°54'37 1.6
2017-Aug-14 19:35N 54°47' E 007°46'3 8.4
2017-Aug-14 19:15N 54°50' E 007°45'2 8.3
2017-Aug-14 19:00N 54°52' E 007°44'4 8.4
2017-Aug-14 18:30N 54°56' E 007°42'4 8.3
2017-Aug-14 18:00N 54°60' E 007°40'4 8.4
2017-Aug-14 17:30N 55°04' E 007°38'4 8.3
2017-Aug-14 17:00N 55°08' E 007°36'4 8.3
2017-Aug-14 16:30N 55°12' E 007°34'4 8.5
2017-Aug-14 16:00N 55°16' E 007°32'4 8.7
2017-Aug-14 15:30N 55°20' E 007°31'4 8.9
2017-Aug-14 15:00N 55°24' E 007°29'5 9.2
2017-Aug-14 14:30N 55°29' E 007°27'5 9.4
2017-Aug-14 13:59N 55°33' E 007°25'135 9.1
2017-Aug-13 23:09N 57°45' E 006°26'3 9.1
2017-Aug-13 22:49N 57°48' E 006°24'3 8.5
2017-Aug-13 22:30N 57°50' E 006°23'4 8.3
2017-Aug-13 21:59N 57°55' E 006°22'4 8.6
2017-Aug-13 21:30N 57°59' E 006°21'4 8.5
2017-Aug-13 20:59N 58°03' E 006°20'4 8.7
2017-Aug-13 20:30N 58°07' E 006°19'4 8.7
2017-Aug-13 20:00N 58°12' E 006°17'4 8.9
2017-Aug-13 19:30N 58°16' E 006°16'4 7.6
2017-Aug-13 19:00N 58°20' E 006°15'0 0.1
2017-Aug-13 18:27N 58°20' E 006°15'0 0.0
2017-Aug-13 18:00N 58°20' E 006°15'0 0.0
2017-Aug-13 17:30N 58°20' E 006°15'0 0.0
2017-Aug-13 17:00N 58°20' E 006°15'0 0.0
2017-Aug-13 16:30N 58°20' E 006°15'0 0.0
2017-Aug-13 16:00N 58°20' E 006°15'0 0.0
2017-Aug-13 15:30N 58°20' E 006°15'0 0.0
2017-Aug-13 15:00N 58°20' E 006°15'0 0.0
2017-Aug-13 14:30N 58°20' E 006°15'0 0.0
2017-Aug-13 14:00N 58°20' E 006°15'0 0.0
2017-Aug-13 13:30N 58°20' E 006°15'0 0.0
2017-Aug-13 13:00N 58°20' E 006°15'0 0.0
2017-Aug-13 12:27N 58°20' E 006°15'0 0.5
2017-Aug-13 12:00N 58°20' E 006°16'0 0.0
2017-Aug-13 11:30N 58°20' E 006°16'0 0.0
2017-Aug-13 11:00N 58°20' E 006°16'0 0.0
2017-Aug-13 10:30N 58°20' E 006°16'0 0.0
2017-Aug-13 10:00N 58°20' E 006°16'0 0.0
2017-Aug-13 09:30N 58°20' E 006°16'0 0.0
2017-Aug-13 09:00N 58°20' E 006°16'0 0.0
2017-Aug-13 08:30N 58°20' E 006°16'0 0.0
2017-Aug-13 08:00N 58°20' E 006°16'0 0.0
2017-Aug-13 07:30N 58°20' E 006°16'0 0.0
2017-Aug-13 07:00N 58°20' E 006°16'0 0.0
2017-Aug-13 06:30N 58°20' E 006°16'0 0.0
2017-Aug-13 06:00N 58°20' E 006°16'0 0.0
2017-Aug-13 05:30N 58°20' E 006°16'0 0.0
2017-Aug-13 05:00N 58°20' E 006°16'0 0.0
2017-Aug-13 04:30N 58°20' E 006°16'0 0.0
2017-Aug-13 03:54N 58°20' E 006°16'0 0.0
2017-Aug-13 03:30N 58°20' E 006°16'0 0.0
2017-Aug-13 03:00N 58°20' E 006°16'0 0.0
2017-Aug-13 02:30N 58°20' E 006°16'0 0.0
2017-Aug-13 02:00N 58°20' E 006°16'0 0.0
2017-Aug-13 01:27N 58°20' E 006°16'0 0.0
2017-Aug-13 01:00N 58°20' E 006°16'0 0.0
2017-Aug-13 00:30N 58°20' E 006°16'0 0.0
2017-Aug-13 00:00N 58°20' E 006°16'0 0.0
2017-Aug-12 23:30N 58°20' E 006°16'0 0.0
2017-Aug-12 23:00N 58°20' E 006°16'0 0.0
2017-Aug-12 22:30N 58°20' E 006°16'0 0.0
2017-Aug-12 22:00N 58°20' E 006°16'0 0.0
2017-Aug-12 21:30N 58°20' E 006°16'0 0.0
2017-Aug-12 21:00N 58°20' E 006°16'0 0.0
2017-Aug-12 20:30N 58°20' E 006°16'0 0.0
2017-Aug-12 20:00N 58°20' E 006°16'0 0.0
2017-Aug-12 19:24N 58°20' E 006°16'0 0.0
2017-Aug-12 19:00N 58°20' E 006°16'0 0.0
2017-Aug-12 18:30N 58°20' E 006°16'0 0.0
2017-Aug-12 18:00N 58°20' E 006°16'0 0.0
2017-Aug-12 17:24N 58°20' E 006°16'0 0.0
2017-Aug-12 17:00N 58°20' E 006°16'0 0.0
2017-Aug-12 16:24N 58°20' E 006°16'0 0.0
2017-Aug-12 16:00N 58°20' E 006°16'0 0.0
2017-Aug-12 15:30N 58°20' E 006°16'0 0.0
2017-Aug-12 14:57N 58°20' E 006°16'0 0.0
2017-Aug-12 14:30N 58°20' E 006°16'0 0.0
2017-Aug-12 13:57N 58°20' E 006°16'0 0.0
2017-Aug-12 13:30N 58°20' E 006°16'0 0.0
2017-Aug-12 12:57N 58°20' E 006°16'0 0.0
2017-Aug-12 12:30N 58°20' E 006°16'0 0.0
2017-Aug-12 12:00N 58°20' E 006°16'0 0.0
2017-Aug-12 11:30N 58°20' E 006°16'0 0.0
2017-Aug-12 11:00N 58°20' E 006°16'  
Track history (hours):
 
Tides and Currents Weather Stations Pressure Air Temp Water Temp Dewpoint Dewpoint Depression Visibility Wind Speed Wind Dir Waves Ship Positions

Dan Fighter

Last reported at 2017-Aug-22 10:32 UTC. Time now 2017-Aug-22 12:44 UTC.
Position N 53°32' E 008°09'.

Length 64 m; draft 3.1 m.

Type: Cargo ship. MMSI: 220386978.

Date/timePositionNaut miles runAvg speedWind from/ knotsBaromVisibWave heightAir tempDewpointWater temp
2017-Aug-22 10:32N 53°32' E 008°09'0 0.3
2017-Aug-22 10:30N 53°32' E 008°09'0 0.6
2017-Aug-22 10:00N 53°32' E 008°10'2 4.1
2017-Aug-22 09:30N 53°34' E 008°10'4 7.6
2017-Aug-22 08:59N 53°37' E 008°09'11 7.6
2017-Aug-22 07:35N 53°47' E 008°02'1 8.9
2017-Aug-22 07:30N 53°48' E 008°01'4 9.1
2017-Aug-22 07:00N 53°50' E 007°54'  
2017-Aug-19 01:59N 54°11' E 007°54'3 6.0
2017-Aug-19 01:28N 54°08' E 007°53'4 8.4
2017-Aug-19 00:59N 54°04' E 007°51'4 8.5
2017-Aug-19 00:30N 53°60' E 007°49'4 8.5
2017-Aug-19 00:00N 53°56' E 007°47'4 8.0
2017-Aug-18 23:31N 53°52' E 007°47'5 9.7
2017-Aug-18 23:00N 53°50' E 007°54'510.0
2017-Aug-18 22:30N 53°48' E 008°02'510.8
2017-Aug-18 22:00N 53°42' E 008°05'5 9.9
2017-Aug-18 21:30N 53°38' E 008°09'5 9.3
2017-Aug-18 21:00N 53°34' E 008°11'2 4.1
2017-Aug-18 20:31N 53°32' E 008°10'0 0.6
2017-Aug-18 20:00N 53°32' E 008°09'0 0.0
2017-Aug-18 19:30N 53°32' E 008°09'0 0.0
2017-Aug-18 19:00N 53°32' E 008°09'0 0.0
2017-Aug-18 18:30N 53°32' E 008°09'0 0.0
2017-Aug-18 17:57N 53°32' E 008°09'0 0.0
2017-Aug-18 17:27N 53°32' E 008°09'0 0.0
2017-Aug-18 16:57N 53°32' E 008°09'0 0.0
2017-Aug-18 16:31N 53°32' E 008°09'0 0.0
2017-Aug-18 16:00N 53°32' E 008°09'0 0.0
2017-Aug-18 15:30N 53°32' E 008°09'0 0.0
2017-Aug-18 14:36N 53°32' E 008°09'0 0.0
2017-Aug-18 14:00N 53°32' E 008°09'0 0.0
2017-Aug-18 13:27N 53°32' E 008°09'0 0.0
2017-Aug-18 13:00N 53°32' E 008°09'0 0.0
2017-Aug-18 12:30N 53°32' E 008°09'0 0.0
2017-Aug-18 11:57N 53°32' E 008°09'0 0.0
2017-Aug-18 11:30N 53°32' E 008°09'0 0.0
2017-Aug-18 11:00N 53°32' E 008°09'0 0.6
2017-Aug-18 10:30N 53°32' E 008°10'0 0.0
2017-Aug-18 10:00N 53°32' E 008°10'2 4.0
2017-Aug-18 09:30N 53°34' E 008°10'4 8.2
2017-Aug-18 08:59N 53°38' E 008°09'4 8.9
2017-Aug-18 08:30N 53°41' E 008°05'6 9.3
2017-Aug-18 07:50N 53°47' E 008°02'3 9.6
2017-Aug-18 07:30N 53°49' E 007°57'22 0.8
2017-Aug-17 05:07N 54°11' E 007°54'0 0.0
2017-Aug-17 04:58N 54°11' E 007°54'0 0.1
2017-Aug-17 03:58N 54°11' E 007°54'0 0.0
2017-Aug-16 23:35N 54°10' E 007°54'1 5.8
2017-Aug-16 23:28N 54°10' E 007°54'4 8.9
2017-Aug-16 23:00N 54°06' E 007°52'5 9.0
2017-Aug-16 22:30N 54°02' E 007°49'5 9.1
2017-Aug-16 22:01N 53°57' E 007°47'4 8.6
2017-Aug-16 21:30N 53°53' E 007°44'5 9.7
2017-Aug-16 21:00N 53°51' E 007°51'611.4
2017-Aug-16 20:30N 53°48' E 008°00'611.6
2017-Aug-16 20:00N 53°43' E 008°04'611.3
2017-Aug-16 19:30N 53°38' E 008°09'510.3
2017-Aug-16 19:00N 53°33' E 008°10'1 2.8
2017-Aug-16 18:31N 53°32' E 008°10'0 0.5
2017-Aug-16 18:00N 53°32' E 008°09'0 0.1
2017-Aug-16 17:30N 53°32' E 008°09'0 0.0
2017-Aug-16 17:00N 53°32' E 008°09'0 0.0
2017-Aug-16 16:30N 53°32' E 008°09'0 0.0
2017-Aug-16 16:00N 53°32' E 008°09'0 0.0
2017-Aug-16 15:30N 53°32' E 008°09'0 0.0
2017-Aug-16 15:00N 53°32' E 008°09'0 0.0
2017-Aug-16 14:30N 53°32' E 008°09'0 0.0
2017-Aug-16 14:00N 53°32' E 008°09'0 0.0
2017-Aug-16 13:30N 53°32' E 008°09'0 0.0
2017-Aug-16 13:00N 53°32' E 008°09'0 0.0
2017-Aug-16 12:30N 53°32' E 008°09'0 0.0
2017-Aug-16 12:00N 53°32' E 008°09'0 0.0
2017-Aug-16 11:30N 53°32' E 008°09'0 0.0
2017-Aug-16 11:00N 53°32' E 008°09'0 0.0
2017-Aug-16 10:30N 53°32' E 008°09'0 0.0
2017-Aug-16 10:00N 53°32' E 008°09'0 0.0
2017-Aug-16 09:30N 53°32' E 008°09'0 0.0
2017-Aug-16 09:00N 53°32' E 008°09'0 0.0
2017-Aug-16 08:30N 53°32' E 008°09'0 0.0
2017-Aug-16 07:57N 53°32' E 008°09'0 0.0
2017-Aug-16 07:30N 53°32' E 008°09'0 0.0
2017-Aug-16 07:00N 53°32' E 008°09'0 0.0
2017-Aug-16 06:30N 53°32' E 008°09'0 0.0
2017-Aug-16 06:00N 53°32' E 008°09'0 0.1
2017-Aug-16 05:30N 53°32' E 008°09'0 0.0
2017-Aug-16 05:00N 53°32' E 008°09'0 0.6
2017-Aug-16 04:30N 53°32' E 008°10'0 0.5
2017-Aug-16 04:00N 53°32' E 008°10'2 4.4
2017-Aug-16 03:30N 53°34' E 008°10'3 5.9
2017-Aug-16 03:00N 53°37' E 008°09'3 5.6
2017-Aug-16 02:30N 53°39' E 008°07'3 5.4
2017-Aug-16 02:00N 53°42' E 008°05'3 5.5
2017-Aug-16 01:30N 53°44' E 008°03'3 5.9
2017-Aug-16 01:00N 53°47' E 008°02'4 7.0
2017-Aug-16 00:30N 53°49' E 007°56'3 6.3
2017-Aug-16 00:00N 53°50' E 007°52'3 5.7
2017-Aug-15 23:30N 53°52' E 007°47'10 5.7
2017-Aug-15 21:50N 54°01' E 007°48'10 8.1
2017-Aug-15 20:37N 54°10' E 007°54'0 3.5
2017-Aug-15 20:30N 54°11' E 007°54'0 0.1
2017-Aug-15 19:58N 54°11' E 007°54'0 0.0
2017-Aug-15 19:28N 54°11' E 007°54'0 0.0
2017-Aug-15 18:58N 54°11' E 007°54'0 0.0
2017-Aug-15 18:28N 54°11' E 007°54'37 1.6
2017-Aug-14 19:35N 54°47' E 007°46'3 8.4
2017-Aug-14 19:15N 54°50' E 007°45'2 8.3
2017-Aug-14 19:00N 54°52' E 007°44'4 8.4
2017-Aug-14 18:30N 54°56' E 007°42'4 8.3
2017-Aug-14 18:00N 54°60' E 007°40'4 8.4
2017-Aug-14 17:30N 55°04' E 007°38'4 8.3
2017-Aug-14 17:00N 55°08' E 007°36'4 8.3
2017-Aug-14 16:30N 55°12' E 007°34'4 8.5
2017-Aug-14 16:00N 55°16' E 007°32'4 8.7
2017-Aug-14 15:30N 55°20' E 007°31'4 8.9
2017-Aug-14 15:00N 55°24' E 007°29'5 9.2
2017-Aug-14 14:30N 55°29' E 007°27'5 9.4
2017-Aug-14 13:59N 55°33' E 007°25'135 9.1
2017-Aug-13 23:09N 57°45' E 006°26'3 9.1
2017-Aug-13 22:49N 57°48' E 006°24'3 8.5
2017-Aug-13 22:30N 57°50' E 006°23'4 8.3
2017-Aug-13 21:59N 57°55' E 006°22'4 8.6
2017-Aug-13 21:30N 57°59' E 006°21'4 8.5
2017-Aug-13 20:59N 58°03' E 006°20'4 8.7
2017-Aug-13 20:30N 58°07' E 006°19'4 8.7
2017-Aug-13 20:00N 58°12' E 006°17'4 8.9
2017-Aug-13 19:30N 58°16' E 006°16'4 7.6
2017-Aug-13 19:00N 58°20' E 006°15'0 0.1
2017-Aug-13 18:27N 58°20' E 006°15'0 0.0
2017-Aug-13 18:00N 58°20' E 006°15'0 0.0
2017-Aug-13 17:30N 58°20' E 006°15'0 0.0
2017-Aug-13 17:00N 58°20' E 006°15'0 0.0
2017-Aug-13 16:30N 58°20' E 006°15'0 0.0
2017-Aug-13 16:00N 58°20' E 006°15'0 0.0
2017-Aug-13 15:30N 58°20' E 006°15'0 0.0
2017-Aug-13 15:00N 58°20' E 006°15'0 0.0
2017-Aug-13 14:30N 58°20' E 006°15'0 0.0
2017-Aug-13 14:00N 58°20' E 006°15'0 0.0
2017-Aug-13 13:30N 58°20' E 006°15'0 0.0
2017-Aug-13 13:00N 58°20' E 006°15'0 0.0
2017-Aug-13 12:27N 58°20' E 006°15'0 0.5
2017-Aug-13 12:00N 58°20' E 006°16'0 0.0
2017-Aug-13 11:30N 58°20' E 006°16'0 0.0
2017-Aug-13 11:00N 58°20' E 006°16'0 0.0
2017-Aug-13 10:30N 58°20' E 006°16'0 0.0
2017-Aug-13 10:00N 58°20' E 006°16'0 0.0
2017-Aug-13 09:30N 58°20' E 006°16'0 0.0
2017-Aug-13 09:00N 58°20' E 006°16'0 0.0
2017-Aug-13 08:30N 58°20' E 006°16'0 0.0
2017-Aug-13 08:00N 58°20' E 006°16'0 0.0
2017-Aug-13 07:30N 58°20' E 006°16'0 0.0
2017-Aug-13 07:00N 58°20' E 006°16'0 0.0
2017-Aug-13 06:30N 58°20' E 006°16'0 0.0
2017-Aug-13 06:00N 58°20' E 006°16'0 0.0
2017-Aug-13 05:30N 58°20' E 006°16'0 0.0
2017-Aug-13 05:00N 58°20' E 006°16'0 0.0
2017-Aug-13 04:30N 58°20' E 006°16'0 0.0
2017-Aug-13 03:54N 58°20' E 006°16'0 0.0
2017-Aug-13 03:30N 58°20' E 006°16'0 0.0
2017-Aug-13 03:00N 58°20' E 006°16'0 0.0
2017-Aug-13 02:30N 58°20' E 006°16'0 0.0
2017-Aug-13 02:00N 58°20' E 006°16'0 0.0
2017-Aug-13 01:27N 58°20' E 006°16'0 0.0
2017-Aug-13 01:00N 58°20' E 006°16'0 0.0
2017-Aug-13 00:30N 58°20' E 006°16'0 0.0
2017-Aug-13 00:00N 58°20' E 006°16'0 0.0
2017-Aug-12 23:30N 58°20' E 006°16'0 0.0
2017-Aug-12 23:00N 58°20' E 006°16'0 0.0
2017-Aug-12 22:30N 58°20' E 006°16'0 0.0
2017-Aug-12 22:00N 58°20' E 006°16'0 0.0
2017-Aug-12 21:30N 58°20' E 006°16'0 0.0
2017-Aug-12 21:00N 58°20' E 006°16'0 0.0
2017-Aug-12 20:30N 58°20' E 006°16'0 0.0
2017-Aug-12 20:00N 58°20' E 006°16'0 0.0
2017-Aug-12 19:24N 58°20' E 006°16'0 0.0
2017-Aug-12 19:00N 58°20' E 006°16'0 0.0
2017-Aug-12 18:30N 58°20' E 006°16'0 0.0
2017-Aug-12 18:00N 58°20' E 006°16'0 0.0
2017-Aug-12 17:24N 58°20' E 006°16'0 0.0
2017-Aug-12 17:00N 58°20' E 006°16'0 0.0
2017-Aug-12 16:24N 58°20' E 006°16'0 0.0
2017-Aug-12 16:00N 58°20' E 006°16'0 0.0
2017-Aug-12 15:30N 58°20' E 006°16'0 0.0
2017-Aug-12 14:57N 58°20' E 006°16'0 0.0
2017-Aug-12 14:30N 58°20' E 006°16'0 0.0
2017-Aug-12 13:57N 58°20' E 006°16'0 0.0
2017-Aug-12 13:30N 58°20' E 006°16'0 0.0
2017-Aug-12 12:57N 58°20' E 006°16'0 0.0
2017-Aug-12 12:30N 58°20' E 006°16'0 0.0
2017-Aug-12 12:00N 58°20' E 006°16'0 0.0
2017-Aug-12 11:30N 58°20' E 006°16'0 0.0
2017-Aug-12 11:00N 58°20' E 006°16'  

Dump ship's entire track history